createdAt,value
2018-11-23T00:00:55.071Z,-1.00
2018-11-23T00:03:24.061Z,-1.00
2018-11-23T00:05:52.986Z,-1.00
2018-11-23T00:08:22.261Z,-1.10
2018-11-23T00:10:51.425Z,-1.10
2018-11-23T00:13:20.487Z,-1.10
2018-11-23T00:15:49.474Z,-1.10
2018-11-23T00:18:18.434Z,-1.10
2018-11-23T00:20:47.766Z,-1.10
2018-11-23T00:23:16.760Z,-1.20
2018-11-23T00:25:45.800Z,-1.20
2018-11-23T00:28:14.961Z,-1.20
2018-11-23T00:30:43.968Z,-1.30
2018-11-23T00:33:12.850Z,-1.30
2018-11-23T00:35:42.154Z,-1.30
2018-11-23T00:38:10.874Z,-1.40
2018-11-23T00:40:39.713Z,-1.40
2018-11-23T00:43:51.864Z,-1.40
2018-11-23T00:46:20.864Z,-1.40
2018-11-23T00:48:49.893Z,-1.40
2018-11-23T00:51:18.959Z,-1.40
2018-11-23T00:53:47.944Z,-1.40
2018-11-23T00:56:16.914Z,-1.40
2018-11-23T00:58:47.043Z,-1.40
2018-11-23T01:01:15.954Z,-1.40
2018-11-23T01:03:44.915Z,-1.40
2018-11-23T01:06:13.960Z,-1.40
2018-11-23T01:08:42.887Z,-1.40
2018-11-23T01:11:11.799Z,-1.50
2018-11-23T01:13:40.897Z,-1.50
2018-11-23T01:16:09.883Z,-1.50
2018-11-23T01:18:38.862Z,-1.50
2018-11-23T01:21:07.747Z,-1.50
2018-11-23T01:23:36.680Z,-1.50
2018-11-23T01:26:05.705Z,-1.50
2018-11-23T01:28:34.642Z,-1.60
2018-11-23T01:31:03.736Z,-1.60
2018-11-23T01:33:32.662Z,-1.60
2018-11-23T01:36:02.671Z,-1.60
2018-11-23T01:38:31.606Z,-1.60
2018-11-23T01:41:00.494Z,-1.70
2018-11-23T01:43:29.442Z,-1.70
2018-11-23T01:45:59.312Z,-1.70
2018-11-23T01:48:28.241Z,-1.70
2018-11-23T01:50:57.355Z,-1.70
2018-11-23T01:53:26.355Z,-1.70
2018-11-23T01:55:55.345Z,-1.70
2018-11-23T01:58:24.220Z,-1.70
2018-11-23T02:00:53.230Z,-1.70
2018-11-23T02:03:22.088Z,-1.80
2018-11-23T02:05:50.960Z,-1.80
2018-11-23T02:08:19.986Z,-1.80
2018-11-23T02:10:48.814Z,-1.80
2018-11-23T02:13:18.127Z,-1.80
2018-11-23T02:15:47.006Z,-1.80
2018-11-23T02:18:15.829Z,-1.80
2018-11-23T02:20:44.831Z,-1.80
2018-11-23T02:23:13.678Z,-1.80
2018-11-23T02:25:42.559Z,-1.90
2018-11-23T02:28:11.422Z,-1.90
2018-11-23T02:30:40.363Z,-1.90
2018-11-23T02:33:09.225Z,-1.90
2018-11-23T02:35:38.120Z,-1.90
2018-11-23T02:38:06.959Z,-1.90
2018-11-23T02:40:35.857Z,-1.90
2018-11-23T02:43:05.034Z,-1.90
2018-11-23T02:45:33.943Z,-1.90
2018-11-23T02:48:03.142Z,-2.00
2018-11-23T02:50:32.516Z,-2.00
2018-11-23T02:53:01.379Z,-2.00
2018-11-23T02:55:30.202Z,-2.00
2018-11-23T02:57:59.472Z,-2.00
2018-11-23T03:00:28.334Z,-2.10
2018-11-23T03:02:57.176Z,-2.10
2018-11-23T03:05:26.069Z,-2.10
2018-11-23T03:07:54.970Z,-2.10
2018-11-23T03:10:23.825Z,-2.10
2018-11-23T03:12:52.774Z,-2.10
2018-11-23T03:15:21.939Z,-2.10
2018-11-23T03:17:51.372Z,-2.20
2018-11-23T03:20:22.399Z,-2.20
2018-11-23T03:22:52.085Z,-2.20
2018-11-23T03:25:21.380Z,-2.20
2018-11-23T03:27:51.050Z,-2.20
2018-11-23T03:30:21.421Z,-2.20
2018-11-23T03:32:51.242Z,-2.30
2018-11-23T03:35:20.783Z,-2.30
2018-11-23T03:37:49.772Z,-2.30
2018-11-23T03:40:18.848Z,-2.30
2018-11-23T03:42:47.947Z,-2.30
2018-11-23T03:45:17.392Z,-2.30
2018-11-23T03:47:46.806Z,-2.30
2018-11-23T03:50:17.458Z,-2.30
2018-11-23T03:52:47.034Z,-2.30
2018-11-23T03:55:17.105Z,-2.30
2018-11-23T03:57:45.960Z,-2.30
2018-11-23T04:00:22.919Z,-2.30
2018-11-23T04:02:55.695Z,-2.30
2018-11-23T04:05:24.627Z,-2.30
2018-11-23T04:07:53.634Z,-2.30
2018-11-23T04:10:22.532Z,-2.40
2018-11-23T04:12:51.584Z,-2.40
2018-11-23T04:15:20.454Z,-2.40
2018-11-23T04:17:49.510Z,-2.40
2018-11-23T04:20:18.777Z,-2.40
2018-11-23T04:22:47.658Z,-2.40
2018-11-23T04:25:16.684Z,-2.40
2018-11-23T04:27:45.609Z,-2.40
2018-11-23T04:30:15.795Z,-2.40
2018-11-23T04:32:45.632Z,-2.40
2018-11-23T04:35:15.705Z,-2.40
2018-11-23T04:37:45.359Z,-2.40
2018-11-23T04:40:14.798Z,-2.40
2018-11-23T04:42:43.838Z,-2.40
2018-11-23T04:45:13.087Z,-2.40
2018-11-23T04:47:42.416Z,-2.50
2018-11-23T04:50:13.457Z,-2.50
2018-11-23T04:52:42.878Z,-2.50
2018-11-23T04:55:12.688Z,-2.50
2018-11-23T04:57:42.015Z,-2.50
2018-11-23T05:00:13.226Z,-2.50
2018-11-23T05:02:42.631Z,-2.50
2018-11-23T05:05:12.232Z,-2.50
2018-11-23T05:07:41.935Z,-2.50
2018-11-23T05:10:12.771Z,-2.40
2018-11-23T05:12:41.896Z,-1.80
2018-11-23T05:15:12.410Z,-2.40
2018-11-23T05:17:41.565Z,-2.40
2018-11-23T05:20:11.488Z,-2.40
2018-11-23T05:22:40.809Z,-2.40
2018-11-23T05:25:11.167Z,-2.40
2018-11-23T05:27:40.241Z,-2.40
2018-11-23T05:30:10.870Z,-2.40
2018-11-23T05:32:40.091Z,-2.40
2018-11-23T05:35:09.868Z,-2.40
2018-11-23T05:37:38.763Z,-2.40
2018-11-23T05:40:09.960Z,-2.40
2018-11-23T05:42:38.763Z,-2.50
2018-11-23T05:45:10.043Z,-2.40
2018-11-23T05:47:39.735Z,-2.40
2018-11-23T05:50:12.388Z,-2.40
2018-11-23T05:52:41.616Z,-2.40
2018-11-23T05:55:11.413Z,-2.40
2018-11-23T05:57:40.619Z,-2.50
2018-11-23T06:00:16.995Z,-2.50
2018-11-23T06:02:45.936Z,-2.50
2018-11-23T06:05:15.357Z,-2.50
2018-11-23T06:07:44.192Z,-2.50
2018-11-23T06:10:14.805Z,-2.50
2018-11-23T06:12:43.640Z,-2.50
2018-11-23T06:15:15.751Z,-2.50
2018-11-23T06:17:45.131Z,-2.50
2018-11-23T06:20:15.877Z,-2.50
2018-11-23T06:22:45.722Z,-2.50
2018-11-23T06:25:20.235Z,-2.50
2018-11-23T06:27:49.417Z,-2.50
2018-11-23T06:30:18.294Z,-2.50
2018-11-23T06:32:58.086Z,-2.50
2018-11-23T06:35:26.955Z,-2.50
2018-11-23T06:37:55.806Z,-2.60
2018-11-23T06:40:24.678Z,-2.60
2018-11-23T06:42:54.323Z,-2.60
2018-11-23T06:45:23.278Z,-2.60
2018-11-23T06:47:52.169Z,-2.60
2018-11-23T06:50:21.136Z,-2.60
2018-11-23T06:52:50.044Z,-2.60
2018-11-23T06:55:24.269Z,-2.60
2018-11-23T06:57:53.081Z,-2.60
2018-11-23T07:00:22.158Z,-2.60
2018-11-23T07:02:51.113Z,-2.60
2018-11-23T07:05:20.986Z,-2.60
2018-11-23T07:07:49.907Z,-2.50
2018-11-23T07:10:20.011Z,-2.50
2018-11-23T07:12:49.862Z,-2.50
2018-11-23T07:15:18.796Z,-2.50
2018-11-23T07:17:47.661Z,-2.50
2018-11-23T07:20:16.499Z,-2.50
2018-11-23T07:22:45.378Z,-2.50
2018-11-23T07:25:14.851Z,-2.40
2018-11-23T07:27:44.995Z,-2.40
2018-11-23T07:30:16.636Z,-2.30
2018-11-23T07:32:47.403Z,-2.20
2018-11-23T07:35:16.714Z,-2.20
2018-11-23T07:37:45.593Z,-2.10
2018-11-23T07:40:29.168Z,-2.00
2018-11-23T07:42:58.254Z,-2.00
2018-11-23T07:45:28.893Z,-2.10
2018-11-23T07:47:57.771Z,-2.00
2018-11-23T07:50:28.051Z,-2.10
2018-11-23T07:52:56.936Z,-2.10
2018-11-23T07:55:25.860Z,-2.10
2018-11-23T07:57:55.813Z,-2.10
2018-11-23T08:00:25.515Z,-2.10
2018-11-23T08:02:54.386Z,-2.10
2018-11-23T08:05:23.389Z,-2.10
2018-11-23T08:07:52.315Z,-2.00
2018-11-23T08:10:21.602Z,-1.90
2018-11-23T08:12:51.161Z,-1.90
2018-11-23T08:15:21.567Z,-1.90
2018-11-23T08:17:50.412Z,-1.80
2018-11-23T08:20:22.121Z,-1.80
2018-11-23T08:22:50.985Z,-1.70
2018-11-23T08:25:21.079Z,-1.70
2018-11-23T08:27:52.434Z,-1.60
2018-11-23T08:30:25.731Z,-1.50
2018-11-23T08:32:55.236Z,-1.50
2018-11-23T08:35:24.207Z,-1.40
2018-11-23T08:37:53.600Z,-1.30
2018-11-23T08:40:24.329Z,-1.30
2018-11-23T08:42:54.532Z,-1.20
2018-11-23T08:45:24.745Z,-1.20
2018-11-23T08:47:53.724Z,-1.10
2018-11-23T08:50:24.699Z,-1.10
2018-11-23T08:52:53.706Z,-1.10
2018-11-23T08:55:22.763Z,-1.00
2018-11-23T08:57:53.213Z,-0.90
2018-11-23T09:00:25.415Z,-0.90
2018-11-23T09:02:56.683Z,-0.80
2018-11-23T09:05:25.542Z,-0.70
2018-11-23T09:07:56.099Z,-0.60
2018-11-23T09:10:27.653Z,-0.50
2018-11-23T09:12:58.543Z,-0.40
2018-11-23T09:15:27.399Z,-0.30
2018-11-23T09:17:56.506Z,-0.30
2018-11-23T09:20:25.464Z,-0.20
2018-11-23T09:22:54.472Z,-0.20
2018-11-23T09:25:24.345Z,-0.10
2018-11-23T09:27:53.395Z,0.00
2018-11-23T09:30:24.773Z,0.10
2018-11-23T09:32:56.921Z,0.20
2018-11-23T09:35:26.455Z,0.20
2018-11-23T09:37:55.410Z,0.30
2018-11-23T09:40:26.104Z,0.40
2018-11-23T09:42:55.280Z,0.50
2018-11-23T09:45:26.267Z,0.50
2018-11-23T09:47:56.870Z,0.60
2018-11-23T09:50:29.691Z,0.60
2018-11-23T09:53:01.123Z,0.70
2018-11-23T09:55:30.839Z,0.80
2018-11-23T09:58:01.939Z,0.90
2018-11-23T10:00:33.204Z,0.90
2018-11-23T10:03:02.945Z,1.00
2018-11-23T10:05:32.577Z,1.10
2018-11-23T10:08:03.174Z,1.20
2018-11-23T10:10:32.317Z,1.30
2018-11-23T10:13:01.436Z,1.40
2018-11-23T10:15:31.551Z,1.50
2018-11-23T10:18:00.768Z,1.50
2018-11-23T10:20:31.137Z,1.60
2018-11-23T10:23:00.184Z,1.70
2018-11-23T10:25:30.493Z,1.80
2018-11-23T10:27:59.505Z,1.80
2018-11-23T10:30:31.917Z,1.90
2018-11-23T10:33:02.314Z,2.00
2018-11-23T10:35:31.423Z,2.10
2018-11-23T10:38:01.914Z,2.10
2018-11-23T10:40:32.631Z,2.20
2018-11-23T10:43:03.091Z,2.20
2018-11-23T10:45:33.125Z,2.30
2018-11-23T10:48:03.209Z,2.50
2018-11-23T10:50:36.794Z,2.70
2018-11-23T10:53:08.072Z,2.80
2018-11-23T10:55:37.968Z,3.00
2018-11-23T10:58:07.628Z,3.10
2018-11-23T11:00:42.557Z,3.30
2018-11-23T11:03:17.815Z,3.40
2018-11-23T11:05:52.219Z,3.60
2018-11-23T11:08:22.524Z,3.60
2018-11-23T11:10:51.729Z,3.70
2018-11-23T11:13:20.813Z,3.80
2018-11-23T11:15:49.950Z,3.90
2018-11-23T11:18:19.086Z,4.00
2018-11-23T11:20:48.799Z,4.10
2018-11-23T11:23:17.900Z,4.20
2018-11-23T11:25:47.403Z,4.30
2018-11-23T11:28:20.380Z,4.40
2018-11-23T11:30:50.477Z,4.50
2018-11-23T11:33:19.567Z,4.70
2018-11-23T11:35:48.676Z,4.70
2018-11-23T11:38:17.663Z,4.80
2018-11-23T11:40:46.746Z,4.80
2018-11-23T11:43:15.758Z,4.80
2018-11-23T11:45:44.656Z,4.90
2018-11-23T11:48:13.584Z,5.00
2018-11-23T11:50:44.415Z,5.00
2018-11-23T11:53:13.602Z,5.00
2018-11-23T11:55:42.694Z,5.10
2018-11-23T11:58:12.218Z,5.10
2018-11-23T12:00:41.339Z,5.20
2018-11-23T12:03:10.514Z,5.30
2018-11-23T12:05:39.822Z,5.30
2018-11-23T12:08:08.928Z,5.40
2018-11-23T12:10:37.898Z,5.40
2018-11-23T12:13:07.120Z,5.50
2018-11-23T12:15:36.471Z,5.50
2018-11-23T12:18:05.588Z,5.60
2018-11-23T12:20:34.654Z,5.60
2018-11-23T12:23:03.548Z,5.60
2018-11-23T12:25:34.807Z,5.60
2018-11-23T12:28:03.697Z,5.70
2018-11-23T12:30:32.746Z,5.70
2018-11-23T12:33:01.787Z,5.70
2018-11-23T12:35:30.760Z,5.70
2018-11-23T12:38:01.816Z,5.80
2018-11-23T12:40:30.835Z,5.90
2018-11-23T12:42:59.808Z,5.90
2018-11-23T12:45:30.224Z,5.90
2018-11-23T12:47:59.320Z,6.00
2018-11-23T12:50:28.566Z,6.00
2018-11-23T12:52:57.519Z,5.90
2018-11-23T12:55:27.195Z,5.90
2018-11-23T12:57:56.301Z,5.90
2018-11-23T13:00:29.676Z,5.90
2018-11-23T13:03:02.827Z,5.90
2018-11-23T13:05:32.860Z,5.80
2018-11-23T13:08:03.383Z,5.90
2018-11-23T13:10:32.847Z,6.00
2018-11-23T13:13:04.336Z,6.00
2018-11-23T13:15:33.524Z,6.10
2018-11-23T13:18:05.959Z,6.10
2018-11-23T13:20:35.884Z,6.20
2018-11-23T13:23:04.976Z,6.20
2018-11-23T13:25:34.409Z,6.20
2018-11-23T13:28:03.461Z,6.20
2018-11-23T13:30:34.050Z,6.20
2018-11-23T13:33:03.061Z,6.20
2018-11-23T13:35:32.101Z,6.30
2018-11-23T13:38:01.891Z,6.30
2018-11-23T13:40:31.253Z,6.20
2018-11-23T13:43:01.283Z,6.20
2018-11-23T13:45:31.795Z,6.10
2018-11-23T13:48:00.769Z,6.10
2018-11-23T13:50:30.799Z,6.10
2018-11-23T13:53:01.367Z,6.20
2018-11-23T13:55:30.895Z,6.20
2018-11-23T13:57:59.931Z,6.20
2018-11-23T14:00:30.399Z,6.30
2018-11-23T14:02:59.409Z,6.30
2018-11-23T14:05:30.692Z,6.20
2018-11-23T14:08:02.073Z,6.20
2018-11-23T14:10:31.692Z,6.20
2018-11-23T14:13:00.986Z,6.10
2018-11-23T14:15:31.331Z,6.10
2018-11-23T14:18:01.107Z,6.10
2018-11-23T14:20:30.372Z,6.10
2018-11-23T14:22:59.661Z,6.00
2018-11-23T14:25:30.854Z,6.00
2018-11-23T14:28:00.386Z,5.90
2018-11-23T14:30:32.770Z,5.90
2018-11-23T14:33:02.926Z,5.90
2018-11-23T14:35:35.383Z,5.80
2018-11-23T14:38:04.581Z,5.80
2018-11-23T14:40:33.977Z,5.70
2018-11-23T14:43:03.744Z,5.70
2018-11-23T14:45:35.782Z,5.60
2018-11-23T14:48:08.401Z,5.60
2018-11-23T14:50:43.334Z,5.60
2018-11-23T14:53:12.995Z,5.60
2018-11-23T14:55:42.423Z,5.60
2018-11-23T14:58:11.649Z,5.50
2018-11-23T15:00:41.626Z,5.50
2018-11-23T15:03:11.238Z,5.40
2018-11-23T15:05:40.570Z,5.40
2018-11-23T15:08:09.974Z,5.30
2018-11-23T15:10:39.319Z,5.20
2018-11-23T15:13:10.316Z,5.20
2018-11-23T15:15:41.832Z,5.10
2018-11-23T15:18:12.291Z,5.00
2018-11-23T15:20:46.584Z,4.90
2018-11-23T15:23:18.473Z,4.80
2018-11-23T15:25:48.348Z,4.70
2018-11-23T15:28:17.903Z,4.60
2018-11-23T15:30:48.226Z,4.50
2018-11-23T15:33:18.732Z,4.40
2018-11-23T15:35:48.164Z,4.40
2018-11-23T15:38:20.539Z,4.30
2018-11-23T15:40:51.258Z,4.20
2018-11-23T15:43:22.284Z,4.10
2018-11-23T15:45:53.885Z,4.00
2018-11-23T15:48:23.693Z,3.90
2018-11-23T15:50:53.374Z,3.90
2018-11-23T15:53:49.576Z,3.80
2018-11-23T16:03:27.415Z,3.70
2018-11-23T16:06:01.697Z,3.50
2018-11-23T16:08:31.400Z,3.50
2018-11-23T16:11:15.464Z,3.40
2018-11-23T16:13:53.992Z,3.30
2018-11-23T16:16:26.817Z,3.20
2018-11-23T16:19:00.824Z,3.20
2018-11-23T16:21:40.295Z,3.10
2018-11-23T16:24:29.144Z,3.10
2018-11-23T16:27:02.596Z,3.00
2018-11-23T16:29:33.548Z,2.90
2018-11-23T16:32:03.697Z,2.80
2018-11-23T16:34:34.118Z,2.80
2018-11-23T16:37:03.509Z,2.70
2018-11-23T16:39:33.703Z,2.70
2018-11-23T16:42:03.132Z,2.80
2018-11-23T16:44:32.243Z,2.70
2018-11-23T16:47:01.527Z,2.60
2018-11-23T16:49:32.274Z,2.50
2018-11-23T16:52:02.084Z,2.50
2018-11-23T16:54:46.625Z,2.50
2018-11-23T16:57:16.496Z,2.40
2018-11-23T16:59:47.439Z,2.30
2018-11-23T17:02:21.927Z,2.30
2018-11-23T17:04:52.576Z,2.30
2018-11-23T17:07:26.632Z,2.20
2018-11-23T17:10:10.470Z,2.20
2018-11-23T17:12:40.919Z,2.10
2018-11-23T17:15:14.074Z,2.10
2018-11-23T17:17:47.810Z,2.10
2018-11-23T17:20:23.355Z,2.00
2018-11-23T17:22:55.105Z,2.00
2018-11-23T17:41:27.249Z,1.90
2018-11-23T17:43:56.790Z,1.60
2018-11-23T17:46:26.253Z,1.60
2018-11-23T17:48:56.205Z,1.50
2018-11-23T17:51:25.584Z,1.50
2018-11-23T17:53:57.501Z,1.50
2018-11-23T17:56:28.525Z,1.50
2018-11-23T17:58:59.004Z,1.40
2018-11-23T18:01:28.594Z,1.40
2018-11-23T18:03:57.997Z,1.40
2018-11-23T18:06:29.659Z,1.40
2018-11-23T18:09:03.333Z,1.40
2018-11-23T18:11:36.668Z,1.40
2018-11-23T18:14:08.098Z,1.30
2018-11-23T18:16:38.078Z,1.30
2018-11-23T18:19:08.468Z,1.30
2018-11-23T18:21:42.580Z,1.30
2018-11-23T18:24:15.299Z,1.30
2018-11-23T18:26:47.615Z,1.30
2018-11-23T18:29:24.275Z,1.30
2018-11-23T18:31:53.710Z,1.30
2018-11-23T18:34:24.049Z,1.30
2018-11-23T18:36:53.921Z,1.30
2018-11-23T18:39:30.713Z,1.20
2018-11-23T18:42:01.551Z,1.20
2018-11-23T18:44:33.054Z,1.20
2018-11-23T18:47:04.473Z,1.10
2018-11-23T18:49:34.918Z,1.10
2018-11-23T18:52:08.270Z,1.10
2018-11-23T18:54:37.624Z,1.10
2018-11-23T18:57:08.352Z,1.10
2018-11-23T18:59:39.655Z,1.10
2018-11-23T19:02:40.093Z,1.00
2018-11-23T19:05:24.060Z,1.00
2018-11-23T19:08:16.937Z,0.90
2018-11-23T19:11:06.195Z,0.90
2018-11-23T19:13:36.859Z,0.90
2018-11-23T19:16:10.877Z,0.90
2018-11-23T19:18:46.303Z,0.80
2018-11-23T19:21:16.388Z,0.80
2018-11-23T19:23:45.930Z,0.80
2018-11-23T19:26:20.221Z,0.80
2018-11-23T19:28:53.564Z,0.80
2018-11-23T19:31:25.155Z,0.80
2018-11-23T19:33:59.450Z,0.80
2018-11-23T19:36:35.990Z,0.80
2018-11-23T19:39:08.482Z,0.80
2018-11-23T19:41:39.833Z,0.70
2018-11-23T19:44:17.274Z,0.70
2018-11-23T19:49:28.190Z,0.70
2018-11-23T19:52:07.755Z,0.60
2018-11-23T19:54:42.312Z,0.60
2018-11-23T19:57:12.857Z,0.60
2018-11-23T20:02:41.445Z,0.50
2018-11-23T20:05:10.880Z,0.50
2018-11-23T20:07:58.074Z,0.50
2018-11-23T20:10:27.964Z,0.50
2018-11-23T20:12:58.259Z,0.40
2018-11-23T20:15:28.623Z,0.40
2018-11-23T20:18:00.480Z,0.40
2018-11-23T20:20:30.050Z,0.40
2018-11-23T20:23:00.682Z,0.40
2018-11-23T20:25:33.247Z,0.40
2018-11-23T20:28:04.604Z,0.40
2018-11-23T20:30:33.882Z,0.30
2018-11-23T20:33:04.803Z,0.30
2018-11-23T20:35:34.812Z,0.30
2018-11-23T20:38:04.256Z,0.30
2018-11-23T20:40:43.165Z,0.30
2018-11-23T20:43:12.819Z,0.30
2018-11-23T20:45:42.340Z,0.30
2018-11-23T20:48:11.895Z,0.20
2018-11-23T20:50:41.243Z,0.20
2018-11-23T20:53:11.718Z,0.20
2018-11-23T20:55:41.619Z,0.20
2018-11-23T20:58:11.455Z,0.20
2018-11-23T21:00:40.908Z,0.20
2018-11-23T21:03:10.330Z,0.20
2018-11-23T21:05:42.398Z,0.20
2018-11-23T21:08:11.924Z,0.20
2018-11-23T21:10:50.219Z,0.20
2018-11-23T21:13:19.688Z,0.10
2018-11-23T21:15:49.073Z,0.20
2018-11-23T21:18:19.508Z,0.10
2018-11-23T21:20:55.715Z,0.10
2018-11-23T21:23:25.871Z,0.10
2018-11-23T21:25:55.342Z,0.10
2018-11-23T21:28:25.059Z,0.10
2018-11-23T21:30:54.503Z,0.10
2018-11-23T21:33:24.531Z,0.10
2018-11-23T21:35:54.144Z,0.00
2018-11-23T21:38:29.770Z,0.00
2018-11-23T21:40:59.254Z,0.00
2018-11-23T21:43:29.284Z,0.00
2018-11-23T21:45:58.745Z,0.00
2018-11-23T21:48:36.530Z,0.00
2018-11-23T21:51:06.211Z,0.00
2018-11-23T21:53:36.603Z,0.00
2018-11-23T21:56:09.479Z,-0.10
2018-11-23T21:58:36.960Z,-0.20
2018-11-23T22:01:06.343Z,-0.20
2018-11-23T22:03:42.802Z,-0.20
2018-11-23T22:06:12.261Z,-0.20
2018-11-23T22:08:44.575Z,-0.20
2018-11-23T22:11:16.425Z,-0.20
2018-11-23T22:13:47.434Z,-0.20
2018-11-23T22:16:18.319Z,-0.20
2018-11-23T22:18:56.788Z,-0.20
2018-11-23T22:21:26.194Z,-0.30
2018-11-23T22:24:01.742Z,-0.30
2018-11-23T22:26:30.048Z,-0.30
2018-11-23T22:28:59.492Z,-0.30
2018-11-23T22:31:29.103Z,-0.30
2018-11-23T22:34:04.356Z,-0.30
2018-11-23T22:36:33.713Z,-0.20
2018-11-23T22:39:03.198Z,-0.20
2018-11-23T22:41:32.529Z,-0.20
2018-11-23T22:44:05.151Z,-0.20
2018-11-23T22:46:34.619Z,-0.30
2018-11-23T22:49:03.938Z,-0.30
2018-11-23T22:51:33.243Z,-0.30
2018-11-23T22:54:02.543Z,-0.30
2018-11-23T22:56:32.140Z,-0.30
2018-11-23T22:59:07.262Z,-0.30
2018-11-23T23:01:36.888Z,-0.40
2018-11-23T23:04:06.608Z,-0.40
2018-11-23T23:06:36.375Z,-0.40
2018-11-23T23:09:08.786Z,-0.40
2018-11-23T23:11:39.339Z,-0.40
2018-11-23T23:14:09.433Z,-0.40
2018-11-23T23:16:38.722Z,-0.40
2018-11-23T23:19:07.983Z,-0.40
2018-11-23T23:21:37.252Z,-0.40
2018-11-23T23:24:11.622Z,-0.40
2018-11-23T23:26:36.585Z,-0.40
2018-11-23T23:29:06.163Z,-0.40
2018-11-23T23:31:35.691Z,-0.40
2018-11-23T23:34:05.179Z,-0.40
2018-11-23T23:36:34.443Z,-0.50
2018-11-23T23:39:03.987Z,-0.40
2018-11-23T23:41:33.268Z,-0.40
2018-11-23T23:44:06.410Z,-0.40
2018-11-23T23:46:36.319Z,-0.40
2018-11-23T23:49:10.064Z,-0.40
2018-11-23T23:51:39.606Z,-0.50
2018-11-23T23:54:09.006Z,-0.50
2018-11-23T23:56:38.328Z,-0.50
2018-11-23T23:59:07.837Z,-0.50
